Time;durP1;ratioP1;P1;durP2;ratioP2;P2;SDS_P1;SDS_P2;PMS_P1;PMS_P2;Temp;Humidity;BMP_temperature;BMP_pressure;BME280_temperature;BME280_humidity;BME280_pressure;Samples;Min_cycle;Max_cycle;Signal;HPM_P1;HPM_P2
2023/01/25 00:14:42;;;;;;;47.80;20.33;;;;;;;2.29;80.28;102262.44;31364290;27;96655;-63
2023/01/25 00:29:42;;;;;;;41.88;18.13;;;;;;;2.43;80.36;102247.84;31370707;27;97141;-60
2023/01/25 00:44:43;;;;;;;39.60;17.38;;;;;;;2.25;80.58;102234.56;31369164;27;96657;-60
2023/01/25 00:59:44;;;;;;;32.85;14.82;;;;;;;2.24;80.18;102230.22;31368130;27;96924;-60
2023/01/25 01:14:45;;;;;;;37.92;15.15;;;;;;;2.41;80.32;102204.97;31366939;27;97109;-62
2023/01/25 01:29:45;;;;;;;28.88;13.63;;;;;;;2.33;80.31;102173.75;31365173;27;96786;-62
2023/01/25 01:44:51;;;;;;;27.08;13.70;;;;;;;2.35;80.21;102174.50;31363448;27;97451;-61
2023/01/25 01:59:54;;;;;;;31.15;12.93;;;;;;;2.31;80.48;102163.28;31362064;27;96727;-61
2023/01/25 02:14:55;;;;;;;27.00;12.48;;;;;;;2.37;80.66;102147.22;31360555;27;96689;-62
2023/01/25 02:29:56;;;;;;;17.33;10.18;;;;;;;2.35;80.24;102158.72;31358683;27;97485;-61
2023/01/25 02:44:56;;;;;;;24.40;12.63;;;;;;;2.37;80.21;102147.22;31357425;27;96702;-62
2023/01/25 02:59:57;;;;;;;21.70;11.20;;;;;;;2.33;80.20;102139.53;31356863;27;96626;-62
2023/01/25 03:14:57;;;;;;;18.85;11.23;;;;;;;2.19;79.67;102133.13;31355150;27;96639;-60
2023/01/25 03:29:58;;;;;;;23.67;10.85;;;;;;;2.25;79.78;102126.72;31353956;27;96648;-62
2023/01/25 03:44:58;;;;;;;25.90;12.55;;;;;;;2.16;79.76;102111.34;31351704;27;96904;-61
2023/01/25 03:59:58;;;;;;;23.30;11.25;;;;;;;2.18;80.07;102101.63;31351043;27;97180;-62
2023/01/25 04:14:59;;;;;;;21.13;10.18;;;;;;;2.13;79.96;102100.97;31349258;27;96683;-61
2023/01/25 04:29:59;;;;;;;20.85;10.90;;;;;;;2.08;79.60;102081.91;31347797;27;96944;-61
2023/01/25 04:45:00;;;;;;;19.00;10.18;;;;;;;2.14;79.58;102071.16;31345376;27;96919;-62
2023/01/25 05:00:00;;;;;;;28.85;12.10;;;;;;;2.13;80.02;102056.28;31358379;27;96737;-62
2023/01/25 05:15:01;;;;;;;20.15;9.77;;;;;;;2.18;79.80;102044.63;31362814;27;96948;-62
2023/01/25 05:30:01;;;;;;;24.67;11.35;;;;;;;1.99;79.36;102031.47;31363123;27;96621;-62
2023/01/25 05:45:02;;;;;;;26.60;11.77;;;;;;;2.08;80.23;102029.34;31354670;27;97185;-63
2023/01/25 06:00:04;;;;;;;22.60;9.48;;;;;;;2.04;79.27;102018.13;31349409;27;97098;-62
2023/01/25 06:15:05;;;;;;;23.10;11.30;;;;;;;1.94;79.77;102004.56;31356435;27;96783;-65
2023/01/25 06:30:06;;;;;;;25.10;11.73;;;;;;;1.85;79.83;102015.47;31350037;27;97033;-63
2023/01/25 06:45:08;;;;;;;25.40;9.88;;;;;;;1.86;79.35;102014.56;31342730;27;97987;-70
2023/01/25 07:00:09;;;;;;;26.65;12.27;;;;;;;1.81;79.64;102000.78;31365907;27;97266;-68
2023/01/25 07:15:09;;;;;;;23.75;10.85;;;;;;;1.69;79.66;101981.13;31351269;27;97845;-68
2023/01/25 07:30:10;;;;;;;28.10;13.60;;;;;;;1.85;79.78;101981.31;31349538;27;96538;-67
2023/01/25 07:45:11;;;;;;;24.80;12.20;;;;;;;1.94;79.66;101980.91;31345469;27;97090;-69
2023/01/25 08:00:13;;;;;;;24.70;11.07;;;;;;;1.90;79.28;101966.19;31343702;27;97086;-64
2023/01/25 08:15:13;;;;;;;24.00;11.43;;;;;;;1.95;79.32;101953.66;31346768;27;96654;-67
2023/01/25 08:30:14;;;;;;;20.55;11.18;;;;;;;1.93;79.66;101939.75;31351043;27;96706;-70
2023/01/25 08:45:14;;;;;;;15.73;8.25;;;;;;;2.00;79.57;101938.53;31365037;27;97397;-71
2023/01/25 09:00:16;;;;;;;23.63;10.93;;;;;;;2.20;79.26;101905.19;31364686;27;96732;-67
2023/01/25 09:15:16;;;;;;;29.17;16.00;;;;;;;2.26;79.31;101891.75;31361927;27;96621;-67
2023/01/25 09:30:17;;;;;;;24.40;12.20;;;;;;;2.44;79.10;101897.03;31361395;27;96692;-67
2023/01/25 09:45:32;;;;;;;25.48;14.27;;;;;;;2.52;78.70;101869.41;31357623;27;96869;-72
2023/01/25 10:00:40;;;;;;;26.27;13.80;;;;;;;2.64;79.14;101854.81;31357998;27;97424;-69
2023/01/25 10:15:51;;;;;;;19.40;10.55;;;;;;;2.75;78.91;101845.50;31355579;27;96652;-69
2023/01/25 10:31:21;;;;;;;22.88;10.68;;;;;;;2.81;78.61;101813.63;31357748;27;96797;-70
2023/01/25 10:46:25;;;;;;;20.77;10.27;;;;;;;2.88;78.43;101815.84;31355015;27;96731;-72
2023/01/25 11:01:29;;;;;;;20.87;10.50;;;;;;;2.92;78.47;101800.72;31347553;27;97340;-67
2023/01/25 11:16:32;;;;;;;21.97;11.17;;;;;;;2.90;78.06;101778.91;31351095;27;97038;-67
2023/01/25 11:31:33;;;;;;;21.53;11.37;;;;;;;3.00;78.39;101751.16;31351940;27;96634;-80
2023/01/25 11:46:40;;;;;;;17.25;9.38;;;;;;;3.08;78.34;101705.16;31353143;27;96754;-74
2023/01/25 12:02:14;;;;;;;16.67;8.23;;;;;;;2.79;76.88;101684.72;31351815;27;96571;-69
2023/01/25 12:17:33;;;;;;;;;;;;;;;2.69;77.85;101659.81;31371418;27;97246;-65
2023/01/25 12:32:40;;;;;;;12.20;6.35;;;;;;;2.66;77.96;101631.91;31380882;27;96743;-72
2023/01/25 12:48:13;;;;;;;17.70;8.35;;;;;;;2.35;77.38;101614.28;31370201;27;96785;-74
2023/01/25 13:03:35;;;;;;;15.98;7.60;;;;;;;2.29;77.89;101601.47;31368116;27;96738;-69
2023/01/25 13:18:37;;;;;;;13.32;7.60;;;;;;;2.40;77.34;101579.88;31360968;27;97369;-68
2023/01/25 13:33:37;;;;;;;15.85;9.35;;;;;;;2.44;77.58;101563.81;31360063;27;96781;-69
2023/01/25 13:49:00;;;;;;;13.07;7.75;;;;;;;2.35;77.30;101557.28;31357830;27;97237;-76
2023/01/25 14:04:03;;;;;;;14.23;8.15;;;;;;;2.31;77.65;101550.50;31357171;27;96645;-70
2023/01/25 14:19:25;;;;;;;17.65;9.50;;;;;;;2.11;77.22;101535.78;31356089;27;98295;-70
2023/01/25 14:34:25;;;;;;;22.67;9.13;;;;;;;2.23;77.50;101508.00;31352243;27;96979;-70
2023/01/25 14:49:26;;;;;;;19.38;9.15;;;;;;;2.27;77.63;101493.75;31354341;27;96988;-69
2023/01/25 15:04:26;;;;;;;28.67;16.17;;;;;;;2.33;77.05;101466.25;31345296;27;97394;-71
2023/01/25 15:19:29;;;;;;;19.35;9.98;;;;;;;2.06;77.51;101442.34;31341583;27;97430;-70
2023/01/25 15:34:32;;;;;;;18.25;8.82;;;;;;;2.02;77.82;101431.13;31318317;27;96984;-69
2023/01/25 15:49:38;;;;;;;19.60;9.95;;;;;;;2.01;77.61;101418.94;31341636;27;96832;-70
2023/01/25 16:04:41;;;;;;;17.35;9.38;;;;;;;2.07;77.71;101397.56;31345902;27;97221;-68
2023/01/25 16:19:41;;;;;;;17.98;8.88;;;;;;;1.82;77.64;101384.94;31341787;27;96623;-76
2023/01/25 16:34:42;;;;;;;19.77;9.95;;;;;;;1.52;77.66;101368.13;31349364;27;97213;-77
2023/01/25 16:49:42;;;;;;;17.23;9.63;;;;;;;1.53;78.02;101355.84;31344799;27;96644;-73
2023/01/25 17:04:42;;;;;;;17.90;10.02;;;;;;;1.55;78.02;101338.22;31355116;27;97396;-67
2023/01/25 17:19:43;;;;;;;19.33;11.65;;;;;;;1.64;78.27;101323.72;31175109;27;97285;-69
2023/01/25 17:34:43;;;;;;;18.90;9.48;;;;;;;1.51;78.65;101313.06;30979244;28;97072;-70
2023/01/25 17:49:44;;;;;;;15.02;7.55;;;;;;;1.40;78.51;101295.25;30928591;27;97302;-75
2023/01/25 18:04:44;;;;;;;17.98;10.05;;;;;;;1.32;78.47;101279.09;30983610;28;97048;-70
2023/01/25 18:19:44;;;;;;;20.92;9.52;;;;;;;1.06;78.70;101273.47;30972220;28;96907;-73
2023/01/25 18:34:46;;;;;;;17.92;8.95;;;;;;;1.06;79.06;101254.25;30970808;28;97276;-74
2023/01/25 18:49:49;;;;;;;20.27;9.63;;;;;;;1.04;79.30;101248.22;30969128;28;97548;-68
2023/01/25 19:04:49;;;;;;;20.90;11.68;;;;;;;1.24;79.56;101213.03;30969874;28;96719;-69
2023/01/25 19:19:49;;;;;;;22.63;11.38;;;;;;;1.31;79.96;101207.38;30967068;28;97462;-69
2023/01/25 19:34:50;;;;;;;22.98;12.60;;;;;;;1.32;79.85;101198.53;30964862;28;96979;-65
2023/01/25 19:49:50;;;;;;;26.75;13.13;;;;;;;1.36;79.86;101186.09;30966884;28;97508;-65
2023/01/25 20:04:51;;;;;;;21.95;12.10;;;;;;;1.42;80.15;101169.13;30964557;28;96640;-67
2023/01/25 20:19:51;;;;;;;28.65;13.63;;;;;;;1.33;80.14;101145.09;30966076;28;97083;-67
2023/01/25 20:34:51;;;;;;;33.72;15.43;;;;;;;1.30;80.17;101113.78;30982916;28;97123;-69
2023/01/25 20:49:52;;;;;;;40.13;19.45;;;;;;;1.08;80.04;101092.28;30981656;28;97338;-69
2023/01/25 21:04:52;;;;;;;42.05;18.90;;;;;;;0.92;80.01;101082.66;30982787;28;97129;-65
2023/01/25 21:19:53;;;;;;;49.47;20.88;;;;;;;0.86;80.48;101075.13;30980490;28;97276;-66
2023/01/25 21:34:53;;;;;;;45.03;17.83;;;;;;;0.94;80.51;101077.34;30979521;28;98403;-66
2023/01/25 22:05:13;;;;;;;27.50;12.43;;;;;;;1.01;80.65;101061.16;30983996;28;97071;-66
2023/01/25 22:20:13;;;;;;;35.38;15.23;;;;;;;1.16;81.20;101054.19;30987606;28;97208;-66
2023/01/25 22:35:14;;;;;;;32.22;13.75;;;;;;;1.16;80.50;101027.09;30985854;28;96705;-66
2023/01/25 22:50:14;;;;;;;28.27;14.05;;;;;;;1.15;80.43;101010.50;30982580;28;96801;-70
2023/01/25 23:37:08;;;;;;;42.22;17.35;;;;;;;1.11;80.92;100942.56;30875239;28;96745;-70
2023/01/25 23:52:08;;;;;;;37.03;14.45;;;;;;;1.21;80.87;100943.69;30977410;28;96650;-67
